This is the latest recevied weather packets stored in our database for station/object YO6RK-13. If no packets are shown the sender has not sent any weather packets the latest 10 day(s).
| Time | Temp. | Humidity | Pressure | Rain* | Wind** | Luminosity | Snow |
|---|---|---|---|---|---|---|---|
| 1777601733 | -1.67° C | 91% | 1022.2 hPa | 0 mm | - | - | - |
| 1777599321 | -1.67° C | 91% | 1022.3 hPa | 0 mm | - | - | - |
| 1777598734 | -1.67° C | 90% | 1022.4 hPa | 0 mm | - | - | - |
| 1777594529 | -0.56° C | 90% | 1022.4 hPa | 0 mm | - | - | - |
| 1777593029 | -1.11° C | 90% | 1022.5 hPa | 0 mm | - | - | - |
| 1777590639 | -1.11° C | 90% | 1022.6 hPa | 0 mm | - | - | - |
| 1777590118 | -1.11° C | 90% | 1022.6 hPa | 0 mm | - | - | - |
| 1777588524 | -0.56° C | 90% | 1022.6 hPa | 0 mm | - | - | - |
| 1777587011 | -0.56° C | 89% | 1022.6 hPa | 0 mm | - | - | - |
| 1777586720 | -0.56° C | 89% | 1022.5 hPa | 0 mm | - | - | - |
| 1777586443 | -0.56° C | 89% | 1022.5 hPa | 0 mm | - | - | - |
| 1777586135 | 0° C | 89% | 1022.6 hPa | 0 mm | - | - | - |
| 1777585217 | 0° C | 88% | 1022.6 hPa | 0 mm | - | - | - |
| 1777583713 | 0° C | 88% | 1022.4 hPa | 0 mm | - | - | - |
| 1777578324 | 1.67° C | 83% | 1022.1 hPa | 0 mm | - | - | - |
| 1777578016 | 1.67° C | 83% | 1022.3 hPa | 0 mm | - | - | - |
| 1777574126 | 2.78° C | 79% | 1021.9 hPa | 0 mm | - | - | - |
| 1777573534 | 3.33° C | 78% | 1021.9 hPa | 0 mm | - | - | - |
| 1777572017 | 3.89° C | 74% | 1021.7 hPa | 0 mm | - | - | - |
| 1777570853 | 4.44° C | 72% | 1021.5 hPa | 0 mm | - | - | - |
| 1777570243 | 5° C | 71% | 1021.4 hPa | 0 mm | - | - | - |
| 1777569616 | 5.56° C | 69% | 1021.6 hPa | 0 mm | - | - | - |
| 1777566941 | 5.56° C | 65% | 1021.3 hPa | 0 mm | - | - | - |
| 1777566617 | 5.56° C | 64% | 1021.3 hPa | 0 mm | - | - | - |
| 1777565416 | 5.56° C | 65% | 1021.2 hPa | 0 mm | - | - | - |
* Rain latest hour (hover to see other rain measurements)
** Current wind speed in m/s (hover to see current wind gust speed)